sensor_id;sensor_type;location;lat;lon;timestamp;pressure;altitude;pressure_sealevel;temperature;humidity
40592;BME280;26301;42.832;23.918;2024-02-26T00:02:05;92697.63;;;7.40;86.82
40592;BME280;26301;42.832;23.918;2024-02-26T00:04:32;92686.50;;;7.23;87.28
40592;BME280;26301;42.832;23.918;2024-02-26T00:06:57;92693.41;;;7.34;87.70
40592;BME280;26301;42.832;23.918;2024-02-26T00:09:23;92699.97;;;7.30;87.77
40592;BME280;26301;42.832;23.918;2024-02-26T00:11:48;92699.88;;;7.25;88.58
40592;BME280;26301;42.832;23.918;2024-02-26T00:14:14;92687.25;;;7.23;88.11
40592;BME280;26301;42.832;23.918;2024-02-26T00:16:40;92696.41;;;7.31;87.93
40592;BME280;26301;42.832;23.918;2024-02-26T00:19:06;92687.91;;;7.30;88.55
40592;BME280;26301;42.832;23.918;2024-02-26T00:21:32;92686.03;;;7.26;87.33
40592;BME280;26301;42.832;23.918;2024-02-26T00:23:57;92681.34;;;7.35;85.41
40592;BME280;26301;42.832;23.918;2024-02-26T00:26:23;92664.31;;;7.45;83.18
40592;BME280;26301;42.832;23.918;2024-02-26T00:28:48;92683.34;;;7.73;83.69
40592;BME280;26301;42.832;23.918;2024-02-26T00:31:14;92661.03;;;7.73;82.92
40592;BME280;26301;42.832;23.918;2024-02-26T00:33:39;92685.34;;;8.11;80.30
40592;BME280;26301;42.832;23.918;2024-02-26T00:36:05;92662.72;;;8.42;77.37
40592;BME280;26301;42.832;23.918;2024-02-26T00:38:30;92644.00;;;8.63;71.89
40592;BME280;26301;42.832;23.918;2024-02-26T00:40:56;92643.25;;;8.80;73.73
40592;BME280;26301;42.832;23.918;2024-02-26T00:43:21;92654.69;;;8.89;72.59
40592;BME280;26301;42.832;23.918;2024-02-26T00:45:47;92654.25;;;9.14;72.16
40592;BME280;26301;42.832;23.918;2024-02-26T00:48:13;92667.78;;;9.43;68.72
40592;BME280;26301;42.832;23.918;2024-02-26T00:50:39;92626.66;;;9.31;69.04
40592;BME280;26301;42.832;23.918;2024-02-26T00:53:05;92646.66;;;9.68;65.60
40592;BME280;26301;42.832;23.918;2024-02-26T00:55:30;92648.97;;;9.65;68.08
40592;BME280;26301;42.832;23.918;2024-02-26T00:57:56;92602.94;;;9.51;64.88
40592;BME280;26301;42.832;23.918;2024-02-26T01:00:22;92627.44;;;9.76;63.74
40592;BME280;26301;42.832;23.918;2024-02-26T01:02:47;92639.44;;;9.92;63.04
40592;BME280;26301;42.832;23.918;2024-02-26T01:05:14;92647.53;;;10.01;64.52
40592;BME280;26301;42.832;23.918;2024-02-26T01:07:41;92637.28;;;10.06;62.65
40592;BME280;26301;42.832;23.918;2024-02-26T01:10:07;92636.72;;;10.04;63.94
40592;BME280;26301;42.832;23.918;2024-02-26T01:12:34;92636.25;;;10.07;63.61
40592;BME280;26301;42.832;23.918;2024-02-26T01:15:00;92627.50;;;10.08;62.62
40592;BME280;26301;42.832;23.918;2024-02-26T01:17:26;92628.00;;;10.10;63.04
40592;BME280;26301;42.832;23.918;2024-02-26T01:19:51;92638.81;;;10.29;60.47
40592;BME280;26301;42.832;23.918;2024-02-26T01:22:18;92618.81;;;10.19;59.50
40592;BME280;26301;42.832;23.918;2024-02-26T01:24:44;92640.16;;;10.37;59.39
40592;BME280;26301;42.832;23.918;2024-02-26T01:27:09;92616.09;;;10.31;57.93
40592;BME280;26301;42.832;23.918;2024-02-26T01:29:35;92635.28;;;10.40;57.55
40592;BME280;26301;42.832;23.918;2024-02-26T01:32:00;92627.81;;;10.44;56.45
40592;BME280;26301;42.832;23.918;2024-02-26T01:34:26;92604.00;;;10.37;56.54
40592;BME280;26301;42.832;23.918;2024-02-26T01:36:51;92630.94;;;10.46;57.60
40592;BME280;26301;42.832;23.918;2024-02-26T01:39:17;92639.28;;;10.53;56.49
40592;BME280;26301;42.832;23.918;2024-02-26T01:41:43;92630.38;;;10.39;58.36
40592;BME280;26301;42.832;23.918;2024-02-26T01:44:12;92643.78;;;10.36;59.78
40592;BME280;26301;42.832;23.918;2024-02-26T01:46:38;92648.19;;;10.40;59.27
40592;BME280;26301;42.832;23.918;2024-02-26T01:49:03;92649.09;;;10.56;59.94
40592;BME280;26301;42.832;23.918;2024-02-26T01:51:30;92643.94;;;10.56;60.33
40592;BME280;26301;42.832;23.918;2024-02-26T01:53:58;92634.06;;;10.48;60.33
40592;BME280;26301;42.832;23.918;2024-02-26T01:56:24;92652.97;;;10.53;62.10
40592;BME280;26301;42.832;23.918;2024-02-26T01:58:55;92640.03;;;10.53;62.43
40592;BME280;26301;42.832;23.918;2024-02-26T02:01:22;92638.19;;;10.49;63.01
40592;BME280;26301;42.832;23.918;2024-02-26T02:03:49;92627.38;;;10.25;64.05
40592;BME280;26301;42.832;23.918;2024-02-26T02:06:15;92637.03;;;10.35;63.28
40592;BME280;26301;42.832;23.918;2024-02-26T02:08:41;92658.47;;;10.35;63.51
40592;BME280;26301;42.832;23.918;2024-02-26T02:11:07;92618.22;;;10.12;62.44
40592;BME280;26301;42.832;23.918;2024-02-26T02:13:33;92621.69;;;10.23;62.73
40592;BME280;26301;42.832;23.918;2024-02-26T02:15:58;92623.41;;;10.39;61.12
40592;BME280;26301;42.832;23.918;2024-02-26T02:18:24;92630.59;;;10.37;62.20
40592;BME280;26301;42.832;23.918;2024-02-26T02:20:49;92635.97;;;10.30;64.25
40592;BME280;26301;42.832;23.918;2024-02-26T02:23:15;92635.69;;;10.27;64.54
40592;BME280;26301;42.832;23.918;2024-02-26T02:25:40;92629.66;;;10.21;64.58
40592;BME280;26301;42.832;23.918;2024-02-26T02:28:06;92626.81;;;10.18;64.37
40592;BME280;26301;42.832;23.918;2024-02-26T02:30:32;92622.72;;;9.95;63.93
40592;BME280;26301;42.832;23.918;2024-02-26T02:32:58;92607.78;;;9.97;63.72
40592;BME280;26301;42.832;23.918;2024-02-26T02:35:24;92605.19;;;9.97;61.72
40592;BME280;26301;42.832;23.918;2024-02-26T02:37:54;92617.47;;;9.84;62.71
40592;BME280;26301;42.832;23.918;2024-02-26T02:40:20;92605.88;;;9.87;57.64
40592;BME280;26301;42.832;23.918;2024-02-26T02:42:45;92623.63;;;10.11;57.81
40592;BME280;26301;42.832;23.918;2024-02-26T02:45:11;92607.03;;;10.01;57.55
40592;BME280;26301;42.832;23.918;2024-02-26T02:47:36;92627.78;;;10.12;58.78
40592;BME280;26301;42.832;23.918;2024-02-26T02:50:03;92631.22;;;10.22;54.88
40592;BME280;26301;42.832;23.918;2024-02-26T02:52:29;92629.63;;;10.16;56.14
40592;BME280;26301;42.832;23.918;2024-02-26T02:54:54;92634.59;;;10.23;55.16
40592;BME280;26301;42.832;23.918;2024-02-26T02:57:20;92624.72;;;10.15;55.80
40592;BME280;26301;42.832;23.918;2024-02-26T02:59:46;92603.72;;;10.06;55.71
40592;BME280;26301;42.832;23.918;2024-02-26T03:02:11;92635.13;;;10.25;55.66
40592;BME280;26301;42.832;23.918;2024-02-26T03:04:37;92613.63;;;10.14;54.33
40592;BME280;26301;42.832;23.918;2024-02-26T03:07:02;92633.03;;;10.22;55.44
40592;BME280;26301;42.832;23.918;2024-02-26T03:09:28;92633.66;;;10.29;53.23
40592;BME280;26301;42.832;23.918;2024-02-26T03:11:54;92604.63;;;10.22;52.45
40592;BME280;26301;42.832;23.918;2024-02-26T03:14:19;92634.94;;;10.32;53.05
40592;BME280;26301;42.832;23.918;2024-02-26T03:16:44;92606.44;;;10.21;53.59
40592;BME280;26301;42.832;23.918;2024-02-26T03:19:10;92630.72;;;10.25;54.11
40592;BME280;26301;42.832;23.918;2024-02-26T03:21:35;92615.16;;;10.15;55.98
40592;BME280;26301;42.832;23.918;2024-02-26T03:24:01;92626.53;;;10.14;55.03
40592;BME280;26301;42.832;23.918;2024-02-26T03:26:27;92600.53;;;9.94;55.28
40592;BME280;26301;42.832;23.918;2024-02-26T03:28:52;92625.88;;;10.02;54.83
40592;BME280;26301;42.832;23.918;2024-02-26T03:31:18;92620.19;;;10.00;54.83
40592;BME280;26301;42.832;23.918;2024-02-26T03:33:44;92623.53;;;10.00;56.28
40592;BME280;26301;42.832;23.918;2024-02-26T03:36:09;92608.59;;;9.75;56.62
40592;BME280;26301;42.832;23.918;2024-02-26T03:38:35;92628.84;;;9.89;56.98
40592;BME280;26301;42.832;23.918;2024-02-26T03:41:00;92613.50;;;10.04;53.62
40592;BME280;26301;42.832;23.918;2024-02-26T03:43:26;92594.25;;;10.12;53.12
40592;BME280;26301;42.832;23.918;2024-02-26T03:45:51;92596.47;;;10.03;54.06
40592;BME280;26301;42.832;23.918;2024-02-26T03:48:17;92605.00;;;10.03;54.83
40592;BME280;26301;42.832;23.918;2024-02-26T03:50:42;92594.94;;;10.02;54.36
40592;BME280;26301;42.832;23.918;2024-02-26T03:53:07;92601.78;;;9.91;55.37
40592;BME280;26301;42.832;23.918;2024-02-26T03:55:34;92608.06;;;10.00;55.07
40592;BME280;26301;42.832;23.918;2024-02-26T03:58:00;92595.72;;;10.02;53.86
40592;BME280;26301;42.832;23.918;2024-02-26T04:00:25;92598.09;;;10.09;54.47
40592;BME280;26301;42.832;23.918;2024-02-26T04:02:51;92616.19;;;10.14;53.79
40592;BME280;26301;42.832;23.918;2024-02-26T04:05:17;92601.81;;;10.23;53.13
40592;BME280;26301;42.832;23.918;2024-02-26T04:07:42;92619.16;;;10.28;53.81
40592;BME280;26301;42.832;23.918;2024-02-26T04:10:11;92592.97;;;10.14;52.13
40592;BME280;26301;42.832;23.918;2024-02-26T04:12:43;92590.63;;;10.13;52.71
40592;BME280;26301;42.832;23.918;2024-02-26T04:15:10;92598.94;;;10.20;53.01
40592;BME280;26301;42.832;23.918;2024-02-26T04:17:36;92607.00;;;10.23;53.13
40592;BME280;26301;42.832;23.918;2024-02-26T04:20:03;92607.28;;;10.27;52.39
40592;BME280;26301;42.832;23.918;2024-02-26T04:22:29;92598.69;;;10.21;54.58
40592;BME280;26301;42.832;23.918;2024-02-26T04:24:54;92606.06;;;10.35;53.61
40592;BME280;26301;42.832;23.918;2024-02-26T04:27:20;92607.28;;;10.27;53.70
40592;BME280;26301;42.832;23.918;2024-02-26T04:29:45;92609.13;;;10.32;54.33
40592;BME280;26301;42.832;23.918;2024-02-26T04:32:10;92576.00;;;10.23;53.65
40592;BME280;26301;42.832;23.918;2024-02-26T04:34:36;92571.84;;;10.22;54.08
40592;BME280;26301;42.832;23.918;2024-02-26T04:37:01;92601.66;;;10.30;53.23
40592;BME280;26301;42.832;23.918;2024-02-26T04:39:27;92591.16;;;10.15;53.21
40592;BME280;26301;42.832;23.918;2024-02-26T04:41:52;92608.00;;;10.22;53.86
40592;BME280;26301;42.832;23.918;2024-02-26T04:44:18;92613.28;;;10.33;52.70
40592;BME280;26301;42.832;23.918;2024-02-26T04:46:44;92619.94;;;10.28;53.93
40592;BME280;26301;42.832;23.918;2024-02-26T04:49:10;92592.34;;;10.02;54.27
40592;BME280;26301;42.832;23.918;2024-02-26T04:51:36;92610.22;;;10.08;53.94
40592;BME280;26301;42.832;23.918;2024-02-26T04:54:02;92615.72;;;10.22;54.01
40592;BME280;26301;42.832;23.918;2024-02-26T04:56:28;92621.44;;;10.24;54.51
40592;BME280;26301;42.832;23.918;2024-02-26T04:58:53;92600.66;;;10.09;53.81
40592;BME280;26301;42.832;23.918;2024-02-26T05:01:19;92630.72;;;10.20;55.46
40592;BME280;26301;42.832;23.918;2024-02-26T05:03:44;92612.50;;;10.05;56.26
40592;BME280;26301;42.832;23.918;2024-02-26T05:06:10;92607.03;;;10.01;55.73
40592;BME280;26301;42.832;23.918;2024-02-26T05:08:36;92602.06;;;9.95;57.52
40592;BME280;26301;42.832;23.918;2024-02-26T05:11:02;92619.13;;;9.96;56.24
40592;BME280;26301;42.832;23.918;2024-02-26T05:13:29;92627.72;;;10.06;55.44
40592;BME280;26301;42.832;23.918;2024-02-26T05:15:54;92615.81;;;10.00;58.09
40592;BME280;26301;42.832;23.918;2024-02-26T05:18:21;92628.97;;;9.99;58.85
40592;BME280;26301;42.832;23.918;2024-02-26T05:20:47;92609.44;;;9.81;57.00
40592;BME280;26301;42.832;23.918;2024-02-26T05:23:13;92608.13;;;9.78;58.19
40592;BME280;26301;42.832;23.918;2024-02-26T05:25:38;92640.47;;;9.91;59.27
40592;BME280;26301;42.832;23.918;2024-02-26T05:28:04;92623.94;;;9.65;58.18
40592;BME280;26301;42.832;23.918;2024-02-26T05:30:29;92609.25;;;9.66;60.84
40592;BME280;26301;42.832;23.918;2024-02-26T05:32:55;92645.09;;;9.89;59.76
40592;BME280;26301;42.832;23.918;2024-02-26T05:35:20;92629.59;;;9.62;60.94
40592;BME280;26301;42.832;23.918;2024-02-26T05:37:46;92619.16;;;9.52;59.15
40592;BME280;26301;42.832;23.918;2024-02-26T05:40:12;92640.66;;;9.62;61.20
40592;BME280;26301;42.832;23.918;2024-02-26T05:42:37;92633.25;;;9.44;59.54
40592;BME280;26301;42.832;23.918;2024-02-26T05:45:03;92654.59;;;9.61;62.17
40592;BME280;26301;42.832;23.918;2024-02-26T05:47:35;92649.69;;;9.60;62.73
40592;BME280;26301;42.832;23.918;2024-02-26T05:50:01;92637.63;;;9.44;61.80
40592;BME280;26301;42.832;23.918;2024-02-26T05:52:27;92657.84;;;9.52;59.85
40592;BME280;26301;42.832;23.918;2024-02-26T05:54:54;92665.03;;;9.50;61.71
40592;BME280;26301;42.832;23.918;2024-02-26T05:57:20;92651.00;;;9.41;63.22
40592;BME280;26301;42.832;23.918;2024-02-26T05:59:45;92677.72;;;9.56;64.20
40592;BME280;26301;42.832;23.918;2024-02-26T06:02:11;92678.53;;;9.57;64.71
40592;BME280;26301;42.832;23.918;2024-02-26T06:04:36;92652.50;;;9.36;63.80
40592;BME280;26301;42.832;23.918;2024-02-26T06:07:02;92620.84;;;9.19;63.74
40592;BME280;26301;42.832;23.918;2024-02-26T06:09:27;92664.25;;;9.49;65.63
40592;BME280;26301;42.832;23.918;2024-02-26T06:11:53;92663.00;;;9.52;65.68
40592;BME280;26301;42.832;23.918;2024-02-26T06:14:19;92690.03;;;9.71;60.99
40592;BME280;26301;42.832;23.918;2024-02-26T06:16:45;92688.25;;;9.72;60.31
40592;BME280;26301;42.832;23.918;2024-02-26T06:19:10;92684.47;;;9.79;60.96
40592;BME280;26301;42.832;23.918;2024-02-26T06:21:36;92684.94;;;9.76;61.65
40592;BME280;26301;42.832;23.918;2024-02-26T06:24:01;92668.50;;;9.60;62.97
40592;BME280;26301;42.832;23.918;2024-02-26T06:26:27;92658.97;;;9.61;62.67
40592;BME280;26301;42.832;23.918;2024-02-26T06:28:54;92669.94;;;9.73;60.96
40592;BME280;26301;42.832;23.918;2024-02-26T06:31:21;92685.16;;;9.97;61.10
40592;BME280;26301;42.832;23.918;2024-02-26T06:33:48;92673.25;;;9.91;61.78
40592;BME280;26301;42.832;23.918;2024-02-26T06:36:15;92675.06;;;9.95;61.89
40592;BME280;26301;42.832;23.918;2024-02-26T06:38:40;92690.22;;;10.14;59.75
40592;BME280;26301;42.832;23.918;2024-02-26T06:41:06;92697.56;;;10.22;57.93
40592;BME280;26301;42.832;23.918;2024-02-26T06:43:31;92672.66;;;10.11;58.37
40592;BME280;26301;42.832;23.918;2024-02-26T06:45:57;92694.47;;;10.25;60.10
40592;BME280;26301;42.832;23.918;2024-02-26T06:48:24;92689.13;;;10.26;59.24
40592;BME280;26301;42.832;23.918;2024-02-26T06:50:49;92701.41;;;10.41;59.77
40592;BME280;26301;42.832;23.918;2024-02-26T06:53:15;92678.81;;;10.32;59.68
40592;BME280;26301;42.832;23.918;2024-02-26T06:55:41;92690.13;;;10.52;58.12
40592;BME280;26301;42.832;23.918;2024-02-26T06:58:08;92675.88;;;10.45;59.76
40592;BME280;26301;42.832;23.918;2024-02-26T07:00:33;92697.22;;;10.67;59.33
40592;BME280;26301;42.832;23.918;2024-02-26T07:02:59;92691.47;;;10.60;60.91
40592;BME280;26301;42.832;23.918;2024-02-26T07:05:24;92681.88;;;10.56;60.57
40592;BME280;26301;42.832;23.918;2024-02-26T07:07:50;92682.69;;;10.61;62.99
40592;BME280;26301;42.832;23.918;2024-02-26T07:10:16;92704.28;;;10.77;63.68
40592;BME280;26301;42.832;23.918;2024-02-26T07:12:41;92702.22;;;10.79;60.45
40592;BME280;26301;42.832;23.918;2024-02-26T07:15:07;92673.97;;;10.67;59.95
40592;BME280;26301;42.832;23.918;2024-02-26T07:17:33;92710.34;;;10.93;60.67
40592;BME280;26301;42.832;23.918;2024-02-26T07:20:02;92699.78;;;10.99;64.23
40592;BME280;26301;42.832;23.918;2024-02-26T07:22:30;92710.69;;;11.07;64.88
40592;BME280;26301;42.832;23.918;2024-02-26T07:24:56;92711.28;;;11.14;63.94
40592;BME280;26301;42.832;23.918;2024-02-26T07:27:21;92716.47;;;11.19;61.54
40592;BME280;26301;42.832;23.918;2024-02-26T07:29:47;92716.75;;;11.23;63.29
40592;BME280;26301;42.832;23.918;2024-02-26T07:32:13;92699.16;;;11.19;62.97
40592;BME280;26301;42.832;23.918;2024-02-26T07:34:38;92694.03;;;11.30;59.14
40592;BME280;26301;42.832;23.918;2024-02-26T07:37:07;92684.50;;;11.35;54.79
40592;BME280;26301;42.832;23.918;2024-02-26T07:39:33;92692.00;;;11.37;51.79
40592;BME280;26301;42.832;23.918;2024-02-26T07:41:58;92697.44;;;11.35;53.00
40592;BME280;26301;42.832;23.918;2024-02-26T07:44:24;92725.19;;;11.50;53.96
40592;BME280;26301;42.832;23.918;2024-02-26T07:46:49;92729.34;;;11.51;56.26
40592;BME280;26301;42.832;23.918;2024-02-26T07:49:15;92708.13;;;11.54;52.47
40592;BME280;26301;42.832;23.918;2024-02-26T07:51:40;92724.28;;;11.72;52.75
40592;BME280;26301;42.832;23.918;2024-02-26T07:54:06;92702.97;;;11.54;53.82
40592;BME280;26301;42.832;23.918;2024-02-26T07:56:31;92724.31;;;11.82;53.83
40592;BME280;26301;42.832;23.918;2024-02-26T07:58:57;92717.59;;;11.81;51.97
40592;BME280;26301;42.832;23.918;2024-02-26T08:01:23;92725.91;;;11.88;54.06
40592;BME280;26301;42.832;23.918;2024-02-26T08:03:48;92696.69;;;11.87;52.25
40592;BME280;26301;42.832;23.918;2024-02-26T08:06:14;92700.84;;;11.88;52.50
40592;BME280;26301;42.832;23.918;2024-02-26T08:08:39;92704.50;;;11.98;53.14
40592;BME280;26301;42.832;23.918;2024-02-26T08:11:05;92714.91;;;12.13;53.05
40592;BME280;26301;42.832;23.918;2024-02-26T08:13:30;92708.97;;;12.23;51.88
40592;BME280;26301;42.832;23.918;2024-02-26T08:15:56;92695.25;;;12.22;51.45
40592;BME280;26301;42.832;23.918;2024-02-26T08:18:21;92717.56;;;12.44;50.67
40592;BME280;26301;42.832;23.918;2024-02-26T08:20:47;92710.84;;;12.53;49.73
40592;BME280;26301;42.832;23.918;2024-02-26T08:23:14;92695.00;;;12.34;51.88
40592;BME280;26301;42.832;23.918;2024-02-26T08:25:39;92713.69;;;12.46;50.31
40592;BME280;26301;42.832;23.918;2024-02-26T08:28:05;92714.19;;;12.53;50.75
40592;BME280;26301;42.832;23.918;2024-02-26T08:30:30;92725.63;;;12.68;50.23
40592;BME280;26301;42.832;23.918;2024-02-26T08:32:56;92718.63;;;12.68;50.36
40592;BME280;26301;42.832;23.918;2024-02-26T08:35:21;92702.28;;;12.63;49.56
40592;BME280;26301;42.832;23.918;2024-02-26T08:37:47;92729.28;;;12.82;49.27
40592;BME280;26301;42.832;23.918;2024-02-26T08:40:13;92723.56;;;12.85;49.47
40592;BME280;26301;42.832;23.918;2024-02-26T08:42:39;92724.09;;;12.92;49.84
40592;BME280;26301;42.832;23.918;2024-02-26T08:45:05;92699.97;;;12.81;49.70
40592;BME280;26301;42.832;23.918;2024-02-26T08:47:30;92730.81;;;12.98;48.98
40592;BME280;26301;42.832;23.918;2024-02-26T08:49:56;92718.66;;;13.04;49.65
40592;BME280;26301;42.832;23.918;2024-02-26T08:52:22;92719.16;;;13.16;49.42
40592;BME280;26301;42.832;23.918;2024-02-26T08:54:48;92687.53;;;13.04;47.88
40592;BME280;26301;42.832;23.918;2024-02-26T08:57:14;92718.41;;;13.36;48.67
40592;BME280;26301;42.832;23.918;2024-02-26T08:59:40;92721.50;;;13.48;49.17
40592;BME280;26301;42.832;23.918;2024-02-26T09:02:05;92709.00;;;13.56;46.69
40592;BME280;26301;42.832;23.918;2024-02-26T09:04:31;92690.84;;;13.56;46.29
40592;BME280;26301;42.832;23.918;2024-02-26T09:06:56;92678.94;;;13.49;46.22
40592;BME280;26301;42.832;23.918;2024-02-26T09:09:22;92684.06;;;13.65;47.17
40592;BME280;26301;42.832;23.918;2024-02-26T09:11:48;92691.28;;;13.83;45.22
40592;BME280;26301;42.832;23.918;2024-02-26T09:14:16;92695.94;;;13.86;44.85
40592;BME280;26301;42.832;23.918;2024-02-26T09:16:42;92696.00;;;13.71;44.39
40592;BME280;26301;42.832;23.918;2024-02-26T09:19:07;92677.06;;;13.70;44.71
40592;BME280;26301;42.832;23.918;2024-02-26T09:21:33;92680.41;;;13.76;45.32
40592;BME280;26301;42.832;23.918;2024-02-26T09:23:58;92688.44;;;13.85;45.91
40592;BME280;26301;42.832;23.918;2024-02-26T09:26:24;92685.59;;;13.81;44.94
40592;BME280;26301;42.832;23.918;2024-02-26T09:28:49;92680.91;;;13.83;45.96
40592;BME280;26301;42.832;23.918;2024-02-26T09:31:15;92691.50;;;13.97;45.06
40592;BME280;26301;42.832;23.918;2024-02-26T09:33:42;92685.56;;;13.86;44.08
40592;BME280;26301;42.832;23.918;2024-02-26T09:36:07;92687.84;;;13.98;44.66
40592;BME280;26301;42.832;23.918;2024-02-26T09:38:34;92673.34;;;13.92;45.03
40592;BME280;26301;42.832;23.918;2024-02-26T09:41:04;92668.16;;;13.87;44.05
40592;BME280;26301;42.832;23.918;2024-02-26T09:43:35;92667.41;;;13.81;43.98
40592;BME280;26301;42.832;23.918;2024-02-26T09:46:01;92666.88;;;13.84;44.44
40592;BME280;26301;42.832;23.918;2024-02-26T09:48:28;92662.72;;;13.83;44.74
40592;BME280;26301;42.832;23.918;2024-02-26T09:50:54;92683.72;;;13.92;44.59
40592;BME280;26301;42.832;23.918;2024-02-26T09:53:21;92687.06;;;14.03;46.58
40592;BME280;26301;42.832;23.918;2024-02-26T09:55:47;92663.69;;;14.03;45.66
40592;BME280;26301;42.832;23.918;2024-02-26T09:58:13;92676.06;;;14.16;44.32
40592;BME280;26301;42.832;23.918;2024-02-26T10:00:47;92662.63;;;14.09;43.38
40592;BME280;26301;42.832;23.918;2024-02-26T10:03:15;92671.66;;;14.16;44.16
40592;BME280;26301;42.832;23.918;2024-02-26T10:05:41;92658.94;;;14.20;44.50
40592;BME280;26301;42.832;23.918;2024-02-26T10:08:09;92676.19;;;14.45;44.20
40592;BME280;26301;42.832;23.918;2024-02-26T10:10:36;92674.59;;;14.54;43.59
40592;BME280;26301;42.832;23.918;2024-02-26T10:13:03;92664.16;;;14.59;43.17
40592;BME280;26301;42.832;23.918;2024-02-26T10:15:34;92652.03;;;14.45;42.80
40592;BME280;26301;42.832;23.918;2024-02-26T10:17:59;92666.78;;;14.49;43.30
40592;BME280;26301;42.832;23.918;2024-02-26T10:20:25;92647.59;;;14.45;43.04
40592;BME280;26301;42.832;23.918;2024-02-26T10:22:51;92676.09;;;14.66;42.81
40592;BME280;26301;42.832;23.918;2024-02-26T10:25:18;92638.81;;;14.41;42.64
40592;BME280;26301;42.832;23.918;2024-02-26T10:27:45;92645.72;;;14.56;42.31
40592;BME280;26301;42.832;23.918;2024-02-26T10:30:18;92665.38;;;14.72;41.85
40592;BME280;26301;42.832;23.918;2024-02-26T10:32:45;92668.47;;;14.74;41.86
40592;BME280;26301;42.832;23.918;2024-02-26T10:35:14;92642.75;;;14.73;43.80
40592;BME280;26301;42.832;23.918;2024-02-26T10:37:41;92655.59;;;14.93;42.07
40592;BME280;26301;42.832;23.918;2024-02-26T10:40:10;92657.91;;;14.95;40.95
40592;BME280;26301;42.832;23.918;2024-02-26T10:42:36;92650.78;;;14.76;41.42
40592;BME280;26301;42.832;23.918;2024-02-26T10:45:01;92647.81;;;14.88;39.81
40592;BME280;26301;42.832;23.918;2024-02-26T10:47:28;92649.31;;;14.94;40.66
40592;BME280;26301;42.832;23.918;2024-02-26T10:49:54;92649.78;;;14.72;41.28
40592;BME280;26301;42.832;23.918;2024-02-26T10:52:22;92644.38;;;14.63;40.25
40592;BME280;26301;42.832;23.918;2024-02-26T10:54:54;92639.69;;;14.66;41.21
40592;BME280;26301;42.832;23.918;2024-02-26T10:57:22;92651.28;;;14.78;40.89
40592;BME280;26301;42.832;23.918;2024-02-26T10:59:51;92617.28;;;14.70;40.38
40592;BME280;26301;42.832;23.918;2024-02-26T11:02:17;92646.63;;;14.75;41.91
40592;BME280;26301;42.832;23.918;2024-02-26T11:04:43;92637.72;;;14.86;42.02
40592;BME280;26301;42.832;23.918;2024-02-26T11:07:09;92637.66;;;14.92;40.16
40592;BME280;26301;42.832;23.918;2024-02-26T11:09:35;92659.25;;;14.92;39.90
40592;BME280;26301;42.832;23.918;2024-02-26T11:12:02;92585.97;;;14.51;40.48
40592;BME280;26301;42.832;23.918;2024-02-26T11:14:29;92645.84;;;15.04;40.27
40592;BME280;26301;42.832;23.918;2024-02-26T11:16:56;92617.78;;;15.01;40.06
40592;BME280;26301;42.832;23.918;2024-02-26T11:19:24;92634.19;;;15.01;39.55
40592;BME280;26301;42.832;23.918;2024-02-26T11:21:50;92643.00;;;15.05;39.73
40592;BME280;26301;42.832;23.918;2024-02-26T11:24:16;92615.06;;;14.87;39.58
40592;BME280;26301;42.832;23.918;2024-02-26T11:26:48;92615.88;;;14.82;40.50
40592;BME280;26301;42.832;23.918;2024-02-26T11:29:19;92622.03;;;14.92;41.23
40592;BME280;26301;42.832;23.918;2024-02-26T11:31:46;92608.78;;;14.93;40.68
40592;BME280;26301;42.832;23.918;2024-02-26T11:34:12;92637.47;;;15.12;41.42
40592;BME280;26301;42.832;23.918;2024-02-26T11:36:38;92605.84;;;15.00;41.21
40592;BME280;26301;42.832;23.918;2024-02-26T11:39:04;92620.25;;;15.16;41.27
40592;BME280;26301;42.832;23.918;2024-02-26T11:41:31;92614.03;;;15.17;40.79
40592;BME280;26301;42.832;23.918;2024-02-26T11:44:03;92632.13;;;15.27;40.18
40592;BME280;26301;42.832;23.918;2024-02-26T11:46:33;92601.06;;;15.12;41.47
40592;BME280;26301;42.832;23.918;2024-02-26T11:51:57;92606.06;;;15.03;41.87
40592;BME280;26301;42.832;23.918;2024-02-26T11:59:56;92595.50;;;15.19;39.77
40592;BME280;26301;42.832;23.918;2024-02-26T12:02:51;92630.53;;;15.31;38.73
40592;BME280;26301;42.832;23.918;2024-02-26T12:05:23;92628.63;;;15.37;38.59
40592;BME280;26301;42.832;23.918;2024-02-26T12:07:53;92581.22;;;15.16;39.94
40592;BME280;26301;42.832;23.918;2024-02-26T12:10:28;92622.38;;;15.38;38.92
40592;BME280;26301;42.832;23.918;2024-02-26T12:13:00;92620.91;;;15.32;38.39
40592;BME280;26301;42.832;23.918;2024-02-26T12:15:33;92619.88;;;15.28;38.35
40592;BME280;26301;42.832;23.918;2024-02-26T12:18:01;92588.59;;;15.09;38.07
40592;BME280;26301;42.832;23.918;2024-02-26T12:20:27;92620.69;;;15.28;38.84
40592;BME280;26301;42.832;23.918;2024-02-26T12:22:53;92610.91;;;15.15;37.89
40592;BME280;26301;42.832;23.918;2024-02-26T12:25:28;92600.06;;;15.08;39.04
40592;BME280;26301;42.832;23.918;2024-02-26T12:27:54;92594.25;;;15.16;39.79
40592;BME280;26301;42.832;23.918;2024-02-26T12:30:20;92606.22;;;15.17;37.55
40592;BME280;26301;42.832;23.918;2024-02-26T12:32:50;92589.84;;;15.17;37.83
40592;BME280;26301;42.832;23.918;2024-02-26T12:35:16;92552.31;;;14.99;37.60
40592;BME280;26301;42.832;23.918;2024-02-26T12:37:46;92623.28;;;15.28;36.71
40592;BME280;26301;42.832;23.918;2024-02-26T12:40:12;92621.84;;;15.12;37.40
40592;BME280;26301;42.832;23.918;2024-02-26T12:42:41;92598.28;;;15.03;37.51
40592;BME280;26301;42.832;23.918;2024-02-26T12:45:08;92619.22;;;15.17;37.51
40592;BME280;26301;42.832;23.918;2024-02-26T12:47:41;92619.22;;;15.17;38.16
40592;BME280;26301;42.832;23.918;2024-02-26T12:50:08;92560.25;;;14.83;38.06
40592;BME280;26301;42.832;23.918;2024-02-26T12:52:37;92620.50;;;15.20;37.81
40592;BME280;26301;42.832;23.918;2024-02-26T12:55:05;92625.38;;;15.26;37.46
40592;BME280;26301;42.832;23.918;2024-02-26T12:57:35;92631.84;;;15.29;38.01